Hedvig Bulker — OWYM2 — position and weather

sailwx.info

Track history (hours):
 
Tides and Currents Weather Stations Pressure Air Temp Water Temp Dewpoint Dewpoint Depression Visibility Wind Speed Wind Dir Waves Ship Positions

Hedvig Bulker

Last reported at 2018-Jan-06 17:31 UTC. Time now 2018-Jan-19 08:02 UTC.
Position N 34°59' E 018°30'.
Warning: this ship's position is 12 days out of date.

Length 175 m; draft 9.4 m.

Type: Ship. MMSI: 219594000.

Date/timePositionNaut miles runAvg speedWind from/ knotsBaromVisibWave heightAir tempDewpointWater temp
2018-Jan-06 17:31N 34°59' E 018°30'012.6
2018-Jan-06 17:30N 34°59' E 018°30'1612.5
2018-Jan-06 16:14N 35°05' E 018°12'312.6
2018-Jan-06 15:59N 35°06' E 018°08'2812.7
2018-Jan-06 13:45N 35°16' E 017°36'313.2
2018-Jan-06 13:30N 35°17' E 017°32'713.0
2018-Jan-06 13:00N 35°19' E 017°24'2512.6
2018-Jan-06 11:02N 35°28' E 016°56'012.9
2018-Jan-06 11:00N 35°28' E 016°55'1212.6
2018-Jan-06 10:02N 35°33' E 016°42'012.5
2018-Jan-06 10:00N 35°33' E 016°41'612.5
2018-Jan-06 09:30N 35°35' E 016°34'612.4
2018-Jan-06 09:00N 35°37' E 016°27'612.4
2018-Jan-06 08:29N 35°40' E 016°19'612.3
2018-Jan-06 08:00N 35°42' E 016°13'1912.4
2018-Jan-06 06:27N 35°49' E 015°50'812.6
2018-Jan-06 05:46N 35°52' E 015°41'312.5
2018-Jan-06 05:30N 35°53' E 015°37'612.6
2018-Jan-06 04:59N 35°55' E 015°29'612.4
2018-Jan-06 04:30N 35°57' E 015°23'612.3
2018-Jan-06 04:00N 35°60' E 015°15'612.4
2018-Jan-06 03:30N 36°02' E 015°08'713.4
2018-Jan-06 03:00N 36°04' E 015°00'611.5
2018-Jan-06 02:29N 36°06' E 014°53'612.3
2018-Jan-06 02:00N 36°08' E 014°47'612.2
2018-Jan-06 01:30N 36°11' E 014°40'612.4
2018-Jan-06 01:00N 36°13' E 014°32'612.6
2018-Jan-06 00:30N 36°15' E 014°25'612.7
2018-Jan-06 00:00N 36°17' E 014°18'612.8
2018-Jan-05 23:30N 36°20' E 014°10'612.7
2018-Jan-05 23:00N 36°22' E 014°03'612.9
2018-Jan-05 22:30N 36°24' E 013°56'712.8
2018-Jan-05 21:57N 36°27' E 013°47'30412.9
2018-Jan-04 22:22N 37°18' E 007°33'514.3
2018-Jan-04 22:00N 37°19' E 007°26'713.9
2018-Jan-04 21:30N 37°19' E 007°18'713.4
2018-Jan-04 21:00N 37°19' E 007°09'713.4
2018-Jan-04 20:28N 37°20' E 007°00'713.3
2018-Jan-04 19:59N 37°20' E 006°52'32212.9
2018-Jan-03 18:59N 36°46' E 000°11'4212.6
2018-Jan-03 15:40N 36°38' W 000°40'212.5
2018-Jan-03 15:30N 36°37' W 000°43'21813.6
2018-Jan-02 23:28N 36°01' W 005°10'714.6
2018-Jan-02 23:01N 35°60' W 005°18'714.8
2018-Jan-02 22:31N 35°58' W 005°26'10612.6
2018-Jan-02 14:07N 36°12' W 007°36'6912.2
2018-Jan-02 08:28N 36°30' W 008°59'612.2
2018-Jan-02 08:00N 36°31' W 009°06'612.0
2018-Jan-02 07:28N 36°33' W 009°14'511.4
2018-Jan-02 07:00N 36°35' W 009°19'1512.1
2018-Jan-02 05:44N 36°47' W 009°32'9412.0
2018-Jan-01 21:54N 38°19' W 009°60'512.5
2018-Jan-01 21:28N 38°24' W 010°01'612.6
2018-Jan-01 21:00N 38°30' W 010°03'712.1
2018-Jan-01 20:26N 38°36' W 010°05'511.8
2018-Jan-01 19:58N 38°42' W 010°06'611.9
2018-Jan-01 19:30N 38°47' W 010°07'612.5
2018-Jan-01 19:00N 38°53' W 010°07'612.6
2018-Jan-01 18:31N 38°60' W 010°07'612.0
2018-Jan-01 18:00N 39°06' W 010°07'612.3
2018-Jan-01 17:31N 39°12' W 010°07'  
2017-Dec-28 23:44N 49°44' W 003°53'210.7
2017-Dec-28 23:30N 49°45' W 003°50'610.9
2017-Dec-28 22:59N 49°48' W 003°42'511.2
2017-Dec-28 22:31N 49°51' W 003°36'611.6
2017-Dec-28 22:01N 49°54' W 003°28'612.0
2017-Dec-28 21:30N 49°56' W 003°19'612.6
2017-Dec-28 21:00N 49°58' W 003°10'612.8
2017-Dec-28 20:31N 49°60' W 003°00'612.9
2017-Dec-28 20:00N 50°01' W 002°51'712.8
2017-Dec-28 19:29N 50°03' W 002°40'8810.8
2017-Dec-28 11:19N 50°26' W 000°27'412.8
2017-Dec-28 11:00N 50°27' W 000°21'712.9
2017-Dec-28 10:30N 50°28' W 000°11'612.8
2017-Dec-28 10:00N 50°30' W 000°02'612.9
2017-Dec-28 09:31N 50°32' E 000°08'612.8
2017-Dec-28 09:01N 50°34' E 000°18'612.7
2017-Dec-28 08:30N 50°35' E 000°27'612.4
2017-Dec-28 08:00N 50°37' E 000°37'612.2
2017-Dec-28 07:30N 50°40' E 000°45'612.0
2017-Dec-28 07:00N 50°43' E 000°53'611.7
2017-Dec-28 06:29N 50°47' E 001°01'511.5
2017-Dec-28 06:00N 50°50' E 001°08'611.7
2017-Dec-28 05:30N 50°54' E 001°15'612.1
2017-Dec-28 05:01N 50°58' E 001°22'612.9
2017-Dec-28 04:31N 51°02' E 001°29'713.9
2017-Dec-28 04:01N 51°08' E 001°36'713.9
2017-Dec-28 03:30N 51°13' E 001°44'714.4
2017-Dec-28 03:00N 51°19' E 001°50'714.1
2017-Dec-28 02:30N 51°25' E 001°56'713.7
2017-Dec-28 02:00N 51°30' E 002°03'713.3
2017-Dec-28 01:30N 51°35' E 002°09'712.9
2017-Dec-28 01:00N 51°40' E 002°16'7910.8
2017-Dec-27 17:39N 52°43' E 003°37'  
Track history (hours):
 
Tides and Currents Weather Stations Pressure Air Temp Water Temp Dewpoint Dewpoint Depression Visibility Wind Speed Wind Dir Waves Ship Positions

Hedvig Bulker

Last reported at 2018-Jan-06 17:31 UTC. Time now 2018-Jan-19 08:02 UTC.
Position N 34°59' E 018°30'.
Warning: this ship's position is 12 days out of date.

Length 175 m; draft 9.4 m.

Type: Ship. MMSI: 219594000.

Date/timePositionNaut miles runAvg speedWind from/ knotsBaromVisibWave heightAir tempDewpointWater temp
2018-Jan-06 17:31N 34°59' E 018°30'012.6
2018-Jan-06 17:30N 34°59' E 018°30'1612.5
2018-Jan-06 16:14N 35°05' E 018°12'312.6
2018-Jan-06 15:59N 35°06' E 018°08'2812.7
2018-Jan-06 13:45N 35°16' E 017°36'313.2
2018-Jan-06 13:30N 35°17' E 017°32'713.0
2018-Jan-06 13:00N 35°19' E 017°24'2512.6
2018-Jan-06 11:02N 35°28' E 016°56'012.9
2018-Jan-06 11:00N 35°28' E 016°55'1212.6
2018-Jan-06 10:02N 35°33' E 016°42'012.5
2018-Jan-06 10:00N 35°33' E 016°41'612.5
2018-Jan-06 09:30N 35°35' E 016°34'612.4
2018-Jan-06 09:00N 35°37' E 016°27'612.4
2018-Jan-06 08:29N 35°40' E 016°19'612.3
2018-Jan-06 08:00N 35°42' E 016°13'1912.4
2018-Jan-06 06:27N 35°49' E 015°50'812.6
2018-Jan-06 05:46N 35°52' E 015°41'312.5
2018-Jan-06 05:30N 35°53' E 015°37'612.6
2018-Jan-06 04:59N 35°55' E 015°29'612.4
2018-Jan-06 04:30N 35°57' E 015°23'612.3
2018-Jan-06 04:00N 35°60' E 015°15'612.4
2018-Jan-06 03:30N 36°02' E 015°08'713.4
2018-Jan-06 03:00N 36°04' E 015°00'611.5
2018-Jan-06 02:29N 36°06' E 014°53'612.3
2018-Jan-06 02:00N 36°08' E 014°47'612.2
2018-Jan-06 01:30N 36°11' E 014°40'612.4
2018-Jan-06 01:00N 36°13' E 014°32'612.6
2018-Jan-06 00:30N 36°15' E 014°25'612.7
2018-Jan-06 00:00N 36°17' E 014°18'612.8
2018-Jan-05 23:30N 36°20' E 014°10'612.7
2018-Jan-05 23:00N 36°22' E 014°03'612.9
2018-Jan-05 22:30N 36°24' E 013°56'712.8
2018-Jan-05 21:57N 36°27' E 013°47'30412.9
2018-Jan-04 22:22N 37°18' E 007°33'514.3
2018-Jan-04 22:00N 37°19' E 007°26'713.9
2018-Jan-04 21:30N 37°19' E 007°18'713.4
2018-Jan-04 21:00N 37°19' E 007°09'713.4
2018-Jan-04 20:28N 37°20' E 007°00'713.3
2018-Jan-04 19:59N 37°20' E 006°52'32212.9
2018-Jan-03 18:59N 36°46' E 000°11'4212.6
2018-Jan-03 15:40N 36°38' W 000°40'212.5
2018-Jan-03 15:30N 36°37' W 000°43'21813.6
2018-Jan-02 23:28N 36°01' W 005°10'714.6
2018-Jan-02 23:01N 35°60' W 005°18'714.8
2018-Jan-02 22:31N 35°58' W 005°26'10612.6
2018-Jan-02 14:07N 36°12' W 007°36'6912.2
2018-Jan-02 08:28N 36°30' W 008°59'612.2
2018-Jan-02 08:00N 36°31' W 009°06'612.0
2018-Jan-02 07:28N 36°33' W 009°14'511.4
2018-Jan-02 07:00N 36°35' W 009°19'1512.1
2018-Jan-02 05:44N 36°47' W 009°32'9412.0
2018-Jan-01 21:54N 38°19' W 009°60'512.5
2018-Jan-01 21:28N 38°24' W 010°01'612.6
2018-Jan-01 21:00N 38°30' W 010°03'712.1
2018-Jan-01 20:26N 38°36' W 010°05'511.8
2018-Jan-01 19:58N 38°42' W 010°06'611.9
2018-Jan-01 19:30N 38°47' W 010°07'612.5
2018-Jan-01 19:00N 38°53' W 010°07'612.6
2018-Jan-01 18:31N 38°60' W 010°07'612.0
2018-Jan-01 18:00N 39°06' W 010°07'612.3
2018-Jan-01 17:31N 39°12' W 010°07'  
2017-Dec-28 23:44N 49°44' W 003°53'210.7
2017-Dec-28 23:30N 49°45' W 003°50'610.9
2017-Dec-28 22:59N 49°48' W 003°42'511.2
2017-Dec-28 22:31N 49°51' W 003°36'611.6
2017-Dec-28 22:01N 49°54' W 003°28'612.0
2017-Dec-28 21:30N 49°56' W 003°19'612.6
2017-Dec-28 21:00N 49°58' W 003°10'612.8
2017-Dec-28 20:31N 49°60' W 003°00'612.9
2017-Dec-28 20:00N 50°01' W 002°51'712.8
2017-Dec-28 19:29N 50°03' W 002°40'8810.8
2017-Dec-28 11:19N 50°26' W 000°27'412.8
2017-Dec-28 11:00N 50°27' W 000°21'712.9
2017-Dec-28 10:30N 50°28' W 000°11'612.8
2017-Dec-28 10:00N 50°30' W 000°02'612.9
2017-Dec-28 09:31N 50°32' E 000°08'612.8
2017-Dec-28 09:01N 50°34' E 000°18'612.7
2017-Dec-28 08:30N 50°35' E 000°27'612.4
2017-Dec-28 08:00N 50°37' E 000°37'612.2
2017-Dec-28 07:30N 50°40' E 000°45'612.0
2017-Dec-28 07:00N 50°43' E 000°53'611.7
2017-Dec-28 06:29N 50°47' E 001°01'511.5
2017-Dec-28 06:00N 50°50' E 001°08'611.7
2017-Dec-28 05:30N 50°54' E 001°15'612.1
2017-Dec-28 05:01N 50°58' E 001°22'612.9
2017-Dec-28 04:31N 51°02' E 001°29'713.9
2017-Dec-28 04:01N 51°08' E 001°36'713.9
2017-Dec-28 03:30N 51°13' E 001°44'714.4
2017-Dec-28 03:00N 51°19' E 001°50'714.1
2017-Dec-28 02:30N 51°25' E 001°56'713.7
2017-Dec-28 02:00N 51°30' E 002°03'713.3
2017-Dec-28 01:30N 51°35' E 002°09'712.9
2017-Dec-28 01:00N 51°40' E 002°16'7910.8
2017-Dec-27 17:39N 52°43' E 003°37'  

Dump ship's entire track history